Terminal Aerodrome Forecast
Issued by NWS Melbourne, FL

Home | Current Version | Previous Version | Text Only | Print | Product List | Glossary On
Versions: 1 2 3 4 5 6 7 8 9 10 11 12 13
000
FTUS42 KMLB 221140
TAFMLB
TAF
KMLB 221140Z 2212/2312 09015G22KT P6SM VCSH BKN018 BKN025
     FM221400 10015G21KT P6SM VCSH SCT025 BKN035
      TEMPO 2214/2216 3SM SHRA BKN020
     FM221800 11017G24KT P6SM VCTS SCT020CB BKN040
     FM230000 11012KT P6SM VCSH SCT025 BKN035
     FM230600 14006KT P6SM VCSH SCT025 BKN070=

USA.gov is the U.S. government's official web portal to all federal, state and local government web resources and services.